createdAt,value
2017-07-17T00:00:28.575Z,4.20
2017-07-17T00:02:56.116Z,4.40
2017-07-17T00:05:23.940Z,4.50
2017-07-17T00:07:51.472Z,4.30
2017-07-17T00:10:19.019Z,4.67
2017-07-17T00:12:46.859Z,4.97
2017-07-17T00:15:14.366Z,4.30
2017-07-17T00:17:41.928Z,5.30
2017-07-17T00:20:09.878Z,4.90
2017-07-17T00:22:37.491Z,4.30
2017-07-17T00:25:05.007Z,4.73
2017-07-17T00:27:32.944Z,6.70
2017-07-17T00:30:00.454Z,4.67
2017-07-17T00:32:27.981Z,5.60
2017-07-17T00:34:55.915Z,4.70
2017-07-17T00:37:23.425Z,5.30
2017-07-17T00:39:50.988Z,5.27
2017-07-17T00:42:18.879Z,6.10
2017-07-17T00:44:46.470Z,5.50
2017-07-17T00:47:13.992Z,5.20
2017-07-17T00:49:41.895Z,5.00
2017-07-17T00:52:09.436Z,5.23
2017-07-17T00:54:37.014Z,5.47
2017-07-17T00:57:05.077Z,5.17
2017-07-17T00:59:32.663Z,5.50
2017-07-17T01:02:00.168Z,5.00
2017-07-17T01:04:28.778Z,5.37
2017-07-17T01:06:56.300Z,4.53
2017-07-17T01:09:23.820Z,6.03
2017-07-17T01:11:51.638Z,4.77
2017-07-17T01:14:19.158Z,5.00
2017-07-17T01:16:46.684Z,4.80
2017-07-17T01:19:14.551Z,4.40
2017-07-17T01:21:42.069Z,4.93
2017-07-17T01:24:10.352Z,4.27
2017-07-17T01:26:38.261Z,4.60
2017-07-17T01:29:05.805Z,4.50
2017-07-17T01:31:33.314Z,4.37
2017-07-17T01:34:01.138Z,4.30
2017-07-17T01:36:28.646Z,4.70
2017-07-17T01:38:56.150Z,4.33
2017-07-17T01:41:24.046Z,4.40
2017-07-17T01:43:51.576Z,4.57
2017-07-17T01:46:19.086Z,5.53
2017-07-17T01:48:46.914Z,4.83
2017-07-17T01:51:14.414Z,5.13
2017-07-17T01:53:41.941Z,5.10
2017-07-17T01:56:09.743Z,3.97
2017-07-17T01:58:37.244Z,4.67
2017-07-17T02:01:04.783Z,4.80
2017-07-17T02:03:33.342Z,4.60
2017-07-17T02:06:00.858Z,5.00
2017-07-17T02:08:28.368Z,4.87
2017-07-17T02:10:56.194Z,4.40
2017-07-17T02:13:23.724Z,5.03
2017-07-17T02:15:51.223Z,4.07
2017-07-17T02:18:19.048Z,4.57
2017-07-17T02:20:46.570Z,4.93
2017-07-17T02:23:14.087Z,4.97
2017-07-17T02:25:41.871Z,4.43
2017-07-17T02:28:09.407Z,5.23
2017-07-17T02:30:36.946Z,4.80
2017-07-17T02:33:04.828Z,4.50
2017-07-17T02:35:32.347Z,5.47
2017-07-17T02:37:59.846Z,6.23
2017-07-17T02:40:27.717Z,4.90
2017-07-17T02:42:55.244Z,5.23
2017-07-17T02:45:22.750Z,5.40
2017-07-17T02:47:50.608Z,4.67
2017-07-17T02:50:18.162Z,4.90
2017-07-17T02:52:45.709Z,5.03
2017-07-17T02:55:13.597Z,5.47
2017-07-17T02:57:41.131Z,5.40
2017-07-17T03:00:09.416Z,4.90
2017-07-17T03:02:38.026Z,4.70
2017-07-17T03:05:05.531Z,5.60
2017-07-17T03:07:33.080Z,5.00
2017-07-17T03:10:00.907Z,5.33
2017-07-17T03:12:29.336Z,5.30
2017-07-17T03:14:57.654Z,6.77
2017-07-17T03:17:25.557Z,5.10
2017-07-17T03:19:53.074Z,5.20
2017-07-17T03:22:20.617Z,5.20
2017-07-17T03:24:49.250Z,6.20
2017-07-17T03:27:16.773Z,5.27
2017-07-17T03:29:45.052Z,5.00
2017-07-17T03:32:14.815Z,5.63
2017-07-17T03:34:42.317Z,6.03
2017-07-17T03:37:10.601Z,6.50
2017-07-17T03:39:38.395Z,5.60
2017-07-17T03:42:05.899Z,6.20
2017-07-17T03:44:34.203Z,5.93
2017-07-17T03:47:02.033Z,6.43
2017-07-17T03:49:29.560Z,6.27
2017-07-17T03:51:57.078Z,5.93
2017-07-17T03:54:24.904Z,5.70
2017-07-17T03:56:52.419Z,6.30
2017-07-17T03:59:19.982Z,6.23
2017-07-17T04:01:47.761Z,6.30
2017-07-17T04:04:15.274Z,6.43
2017-07-17T04:06:42.812Z,6.73
2017-07-17T04:09:10.650Z,6.57
2017-07-17T04:11:38.161Z,6.27
2017-07-17T04:14:05.686Z,6.20
2017-07-17T04:16:33.546Z,6.30
2017-07-17T04:19:01.057Z,6.50
2017-07-17T04:21:29.520Z,6.40
2017-07-17T04:23:57.342Z,6.80
2017-07-17T04:26:24.861Z,6.43
2017-07-17T04:28:53.333Z,6.40
2017-07-17T04:31:21.187Z,6.77
2017-07-17T04:33:48.692Z,6.90
2017-07-17T04:36:16.217Z,6.80
2017-07-17T04:38:44.052Z,6.40
2017-07-17T04:41:11.568Z,7.83
2017-07-17T04:43:39.871Z,6.40
2017-07-17T04:46:07.781Z,7.10
2017-07-17T04:48:38.670Z,6.40
2017-07-17T04:51:06.167Z,7.03
2017-07-17T04:53:34.026Z,7.00
2017-07-17T04:56:01.529Z,6.10
2017-07-17T04:58:29.060Z,6.47
2017-07-17T05:00:56.903Z,6.47
2017-07-17T05:03:24.410Z,7.43
2017-07-17T05:05:51.927Z,6.40
2017-07-17T05:08:19.805Z,7.00
2017-07-17T05:10:47.345Z,6.33
2017-07-17T05:13:15.749Z,7.17
2017-07-17T05:15:43.574Z,7.33
2017-07-17T05:18:11.079Z,7.70
2017-07-17T05:20:38.582Z,6.77
2017-07-17T05:23:07.152Z,7.80
2017-07-17T05:25:34.667Z,7.60
2017-07-17T05:28:02.201Z,6.80
2017-07-17T05:30:30.024Z,8.07
2017-07-17T05:32:57.566Z,9.10
2017-07-17T05:35:25.114Z,7.83
2017-07-17T05:37:52.968Z,8.37
2017-07-17T05:40:20.502Z,7.90
2017-07-17T05:42:48.040Z,8.43
2017-07-17T05:45:15.860Z,8.60
2017-07-17T05:47:43.388Z,6.93
2017-07-17T05:50:10.911Z,7.50
2017-07-17T05:52:38.771Z,8.40
2017-07-17T05:55:06.336Z,8.40
2017-07-17T05:57:33.874Z,8.40
2017-07-17T06:00:01.672Z,8.13
2017-07-17T06:02:29.213Z,8.17
2017-07-17T06:04:56.729Z,8.00
2017-07-17T06:07:24.634Z,6.43
2017-07-17T06:09:52.151Z,8.67
2017-07-17T06:12:20.440Z,7.50
2017-07-17T06:14:48.214Z,8.40
2017-07-17T06:17:15.755Z,8.20
2017-07-17T06:19:43.288Z,9.53
2017-07-17T06:22:11.092Z,10.30
2017-07-17T06:24:38.622Z,9.63
2017-07-17T06:27:06.933Z,10.83
2017-07-17T06:29:34.821Z,9.47
2017-07-17T06:32:02.337Z,8.30
2017-07-17T06:34:30.633Z,7.80
2017-07-17T06:37:00.414Z,9.10
2017-07-17T06:39:28.902Z,8.20
2017-07-17T06:41:57.381Z,9.43
2017-07-17T06:44:25.195Z,8.60
2017-07-17T06:46:52.705Z,7.47
2017-07-17T06:49:20.208Z,8.07
2017-07-17T06:51:48.042Z,8.27
2017-07-17T06:54:15.606Z,7.73
2017-07-17T06:56:43.890Z,8.53
2017-07-17T06:59:12.526Z,8.30
2017-07-17T07:01:40.199Z,8.20
2017-07-17T07:04:07.701Z,7.90
2017-07-17T07:06:35.605Z,8.50
2017-07-17T07:09:03.129Z,7.50
2017-07-17T07:11:32.499Z,11.00
2017-07-17T07:14:01.294Z,8.00
2017-07-17T07:16:28.974Z,8.10
2017-07-17T07:18:56.533Z,7.77
2017-07-17T07:21:25.121Z,7.47
2017-07-17T07:23:52.668Z,8.30
2017-07-17T07:26:20.856Z,7.60
2017-07-17T07:28:49.504Z,7.20
2017-07-17T07:31:17.088Z,6.40
2017-07-17T07:33:46.597Z,7.50
2017-07-17T07:43:20.844Z,8.20
2017-07-17T07:45:49.154Z,8.33
2017-07-17T07:57:02.296Z,7.23
2017-07-17T08:02:11.947Z,7.60
2017-07-17T08:04:41.314Z,7.70
2017-07-17T08:07:10.379Z,7.70
2017-07-17T08:09:40.131Z,7.70
2017-07-17T08:12:13.530Z,6.87
2017-07-17T08:14:41.232Z,9.63
2017-07-17T08:17:12.070Z,10.80
2017-07-17T08:19:43.405Z,12.33
2017-07-17T08:22:11.362Z,12.10
2017-07-17T08:25:08.174Z,17.73
2017-07-17T08:27:59.868Z,17.47
2017-07-17T08:30:27.376Z,13.27
2017-07-17T08:32:55.685Z,12.60
2017-07-17T08:35:23.552Z,11.47
2017-07-17T08:37:51.095Z,11.70
2017-07-17T08:40:18.625Z,11.43
2017-07-17T08:42:47.281Z,12.57
2017-07-17T08:45:14.798Z,10.73
2017-07-17T08:47:42.329Z,10.63
2017-07-17T08:50:10.958Z,10.73
2017-07-17T08:52:38.481Z,10.80
2017-07-17T08:55:06.786Z,9.87
2017-07-17T08:57:34.618Z,9.83
2017-07-17T09:00:02.135Z,10.40
2017-07-17T09:02:29.688Z,11.20
2017-07-17T09:04:57.500Z,10.40
2017-07-17T09:07:25.008Z,10.80
2017-07-17T09:09:52.523Z,10.73
2017-07-17T09:12:20.343Z,11.43
2017-07-17T09:14:47.874Z,11.60
2017-07-17T09:17:15.433Z,11.03
2017-07-17T09:19:43.326Z,10.63
2017-07-17T09:22:10.835Z,12.20
2017-07-17T09:24:38.340Z,11.10
2017-07-17T09:27:06.137Z,11.23
2017-07-17T09:29:33.686Z,13.03
2017-07-17T09:32:01.204Z,11.27
2017-07-17T09:34:29.027Z,10.97
2017-07-17T09:36:56.539Z,13.60
2017-07-17T09:39:24.067Z,12.80
2017-07-17T09:41:51.997Z,12.13
2017-07-17T09:44:19.514Z,12.40
2017-07-17T09:46:47.044Z,12.40
2017-07-17T09:49:14.859Z,11.93
2017-07-17T09:51:42.395Z,11.40
2017-07-17T09:54:10.702Z,10.70
2017-07-17T09:56:38.574Z,12.20
2017-07-17T09:59:06.140Z,10.10
2017-07-17T10:01:33.655Z,10.53
2017-07-17T10:04:02.243Z,11.47
2017-07-17T10:06:30.516Z,9.57
2017-07-17T10:08:58.811Z,10.07
2017-07-17T10:11:26.641Z,10.13
2017-07-17T10:13:54.163Z,9.87
2017-07-17T10:16:21.703Z,9.73
2017-07-17T10:18:49.603Z,10.60
2017-07-17T10:21:17.153Z,9.87
2017-07-17T10:23:44.690Z,10.00
2017-07-17T10:26:12.597Z,10.30
2017-07-17T10:28:40.113Z,8.53
2017-07-17T10:31:07.648Z,8.47
2017-07-17T10:33:36.054Z,7.50
2017-07-17T10:36:04.477Z,6.70
2017-07-17T10:38:32.013Z,6.30
2017-07-17T10:40:59.858Z,6.77
2017-07-17T10:43:27.371Z,7.40
2017-07-17T10:45:54.883Z,7.00
2017-07-17T10:48:22.677Z,6.30
2017-07-17T10:50:50.192Z,6.53
2017-07-17T10:53:18.472Z,6.63
2017-07-17T10:55:46.357Z,5.90
2017-07-17T10:58:13.854Z,6.13
2017-07-17T11:00:41.388Z,6.37
2017-07-17T11:03:09.375Z,6.37
2017-07-17T11:05:36.893Z,5.47
2017-07-17T11:08:05.184Z,5.20
2017-07-17T11:10:32.990Z,4.60
2017-07-17T11:13:00.510Z,5.47
2017-07-17T11:15:28.027Z,3.90
2017-07-17T11:17:55.829Z,4.60
2017-07-17T11:20:23.360Z,5.00
2017-07-17T11:22:50.876Z,5.73
2017-07-17T11:25:19.333Z,4.80
2017-07-17T11:27:46.836Z,4.60
2017-07-17T11:30:14.362Z,5.30
2017-07-17T11:32:42.155Z,6.10
2017-07-17T11:35:09.667Z,4.50
2017-07-17T11:37:37.190Z,5.27
2017-07-17T11:40:06.473Z,3.90
2017-07-17T11:42:34.030Z,4.13
2017-07-17T11:45:01.535Z,15.70
2017-07-17T12:00:02.663Z,4.10
2017-07-17T12:02:30.192Z,5.20
2017-07-17T12:07:25.470Z,3.27
2017-07-17T12:09:53.011Z,3.60
2017-07-17T12:12:20.880Z,4.00
2017-07-17T12:14:49.190Z,3.40
2017-07-17T12:17:16.724Z,3.83
2017-07-17T12:19:44.651Z,4.30
2017-07-17T12:22:13.190Z,3.90
2017-07-17T12:24:40.720Z,3.70
2017-07-17T12:27:08.660Z,3.97
2017-07-17T12:29:36.164Z,3.93
2017-07-17T12:32:04.544Z,9.47
2017-07-17T12:34:33.154Z,4.77
2017-07-17T12:37:00.671Z,4.57
2017-07-17T12:39:28.203Z,4.20
2017-07-17T12:41:56.054Z,14.03
2017-07-17T12:44:23.596Z,10.50
2017-07-17T12:46:51.147Z,4.80
2017-07-17T12:49:19.074Z,3.87
2017-07-17T12:51:46.607Z,4.47
2017-07-17T12:54:14.145Z,7.40
2017-07-17T12:56:42.037Z,5.33
2017-07-17T12:59:09.546Z,5.30
2017-07-17T13:01:37.914Z,4.73
2017-07-17T13:04:05.836Z,5.30
2017-07-17T13:06:33.364Z,5.13
2017-07-17T13:09:01.679Z,5.60
2017-07-17T13:11:29.491Z,4.90
2017-07-17T13:13:57.015Z,5.20
2017-07-17T13:16:24.543Z,4.67
2017-07-17T13:18:52.441Z,4.70
2017-07-17T13:21:19.958Z,4.80
2017-07-17T13:23:48.243Z,4.63
2017-07-17T13:26:16.082Z,4.50
2017-07-17T13:28:43.700Z,4.60
2017-07-17T13:31:11.210Z,4.57
2017-07-17T13:33:39.831Z,5.07
2017-07-17T13:36:07.400Z,5.30
2017-07-17T13:38:34.941Z,5.40
2017-07-17T13:41:02.768Z,4.83
2017-07-17T13:43:30.298Z,4.37
2017-07-17T13:45:57.815Z,4.10
2017-07-17T13:48:26.421Z,4.50
2017-07-17T13:50:53.937Z,3.80
2017-07-17T13:53:21.457Z,4.07
2017-07-17T13:55:49.366Z,3.67
2017-07-17T13:58:16.904Z,3.50
2017-07-17T14:00:44.462Z,4.83
2017-07-17T14:03:13.355Z,3.90
2017-07-17T14:05:40.877Z,3.77
2017-07-17T14:08:08.459Z,4.10
2017-07-17T14:10:36.328Z,4.10
2017-07-17T14:13:03.885Z,4.70
2017-07-17T14:15:31.403Z,4.40
2017-07-17T14:17:59.386Z,4.63
2017-07-17T14:20:27.666Z,4.70
2017-07-17T14:22:55.186Z,4.70
2017-07-17T14:25:23.073Z,4.00
2017-07-17T14:27:50.608Z,5.00
2017-07-17T14:30:18.125Z,5.00
2017-07-17T14:32:46.014Z,4.70
2017-07-17T14:35:13.548Z,4.40
2017-07-17T14:37:41.065Z,4.67
2017-07-17T14:40:08.888Z,4.93
2017-07-17T14:42:36.402Z,5.50
2017-07-17T14:45:03.947Z,6.30
2017-07-17T14:47:31.785Z,6.27
2017-07-17T14:49:59.383Z,5.90
2017-07-17T14:52:27.667Z,7.23
2017-07-17T14:54:55.523Z,6.10
2017-07-17T14:57:23.124Z,6.27
2017-07-17T14:59:50.667Z,6.80
2017-07-17T15:02:18.563Z,7.00
2017-07-17T15:04:46.148Z,6.00
2017-07-17T15:07:13.699Z,6.70
2017-07-17T15:09:41.556Z,5.70
2017-07-17T15:12:09.103Z,5.90
2017-07-17T15:14:36.640Z,5.77
2017-07-17T15:17:05.719Z,6.37
2017-07-17T15:19:33.295Z,5.10
2017-07-17T15:22:00.873Z,5.90
2017-07-17T15:24:28.772Z,6.13
2017-07-17T15:26:56.311Z,5.70
2017-07-17T15:29:23.815Z,5.70
2017-07-17T15:31:51.698Z,5.83
2017-07-17T15:34:19.225Z,5.33
2017-07-17T15:36:46.760Z,5.70
2017-07-17T15:39:14.629Z,6.57
2017-07-17T15:41:42.167Z,6.50
2017-07-17T15:44:09.687Z,6.10
2017-07-17T15:46:37.549Z,6.13
2017-07-17T15:49:05.064Z,5.70
2017-07-17T15:51:32.720Z,6.23
2017-07-17T15:54:00.523Z,6.80
2017-07-17T15:56:28.760Z,7.50
2017-07-17T15:58:56.290Z,7.23
2017-07-17T16:01:24.116Z,7.40
2017-07-17T16:03:51.673Z,7.50
2017-07-17T16:06:19.183Z,7.80
2017-07-17T16:08:48.052Z,8.33
2017-07-17T16:11:15.569Z,8.77
2017-07-17T16:13:43.105Z,7.77
2017-07-17T16:16:13.025Z,7.93
2017-07-17T16:18:40.565Z,8.37
2017-07-17T16:21:08.084Z,7.37
2017-07-17T16:23:35.911Z,6.53
2017-07-17T16:26:04.230Z,8.60
2017-07-17T16:28:31.759Z,7.70
2017-07-17T16:30:59.614Z,7.80
2017-07-17T16:33:27.915Z,8.50
2017-07-17T16:35:56.203Z,8.27
2017-07-17T16:38:24.098Z,8.13
2017-07-17T16:40:51.667Z,8.90
2017-07-17T16:43:20.223Z,7.63
2017-07-17T16:45:48.706Z,8.10
2017-07-17T16:48:16.282Z,8.30
2017-07-17T16:50:44.807Z,9.97
2017-07-17T16:53:12.663Z,9.40
2017-07-17T16:55:40.233Z,8.50
2017-07-17T16:58:07.778Z,8.17
2017-07-17T17:00:35.618Z,9.90
2017-07-17T17:03:03.177Z,10.40
2017-07-17T17:05:30.729Z,10.30
2017-07-17T17:07:58.584Z,10.63
2017-07-17T17:10:26.105Z,10.77
2017-07-17T17:12:53.688Z,10.67
2017-07-17T17:15:22.355Z,10.43
2017-07-17T17:17:49.875Z,11.87
2017-07-17T17:20:17.435Z,11.87
2017-07-17T17:22:45.315Z,11.00
2017-07-17T17:25:12.885Z,11.00
2017-07-17T17:27:40.449Z,12.90
2017-07-17T17:30:08.333Z,11.87
2017-07-17T17:32:35.871Z,11.80
2017-07-17T17:35:03.465Z,11.87
2017-07-17T17:37:32.139Z,9.80
2017-07-17T17:39:59.691Z,10.30
2017-07-17T17:42:27.247Z,10.60
2017-07-17T17:44:55.109Z,10.07
2017-07-17T17:47:22.625Z,10.57
2017-07-17T17:53:13.196Z,18.33
2017-07-17T17:58:49.179Z,9.70
2017-07-17T18:01:36.122Z,10.60
2017-07-17T18:04:06.376Z,9.73
2017-07-17T18:06:35.136Z,9.33
2017-07-17T18:09:02.880Z,10.37
2017-07-17T18:11:31.046Z,9.90
2017-07-17T18:14:01.976Z,9.23
2017-07-17T18:16:29.541Z,9.30
2017-07-17T18:18:57.397Z,10.57
2017-07-17T18:21:24.978Z,9.10
2017-07-17T18:23:52.514Z,10.40
2017-07-17T18:26:20.391Z,9.77
2017-07-17T18:28:47.960Z,9.20
2017-07-17T18:31:15.493Z,8.20
2017-07-17T18:33:45.280Z,8.83
2017-07-17T18:36:12.852Z,7.70
2017-07-17T18:38:40.437Z,8.10
2017-07-17T18:41:08.500Z,7.97
2017-07-17T18:43:36.053Z,7.97
2017-07-17T18:46:03.619Z,6.80
2017-07-17T18:48:31.482Z,6.80
2017-07-17T18:50:59.102Z,7.43
2017-07-17T18:53:27.574Z,7.77
2017-07-17T18:55:56.436Z,8.67
2017-07-17T18:58:23.977Z,7.37
2017-07-17T19:00:52.468Z,7.07
2017-07-17T19:03:20.301Z,7.67
2017-07-17T19:05:48.611Z,8.07
2017-07-17T19:08:16.356Z,6.97
2017-07-17T19:10:44.385Z,7.23
2017-07-17T19:13:18.066Z,6.90
2017-07-17T19:15:46.355Z,7.20
2017-07-17T19:18:13.905Z,7.20
2017-07-17T19:20:41.435Z,8.20
2017-07-17T19:23:09.344Z,7.70
2017-07-17T19:25:37.957Z,7.70
2017-07-17T19:30:54.704Z,8.60
2017-07-17T19:33:22.288Z,7.20
2017-07-17T19:35:49.988Z,11.13
2017-07-17T19:38:17.840Z,11.07
2017-07-17T19:40:45.405Z,9.43
2017-07-17T19:43:13.021Z,8.63
2017-07-17T19:45:40.914Z,7.80
2017-07-17T19:48:08.505Z,9.50
2017-07-17T19:50:36.089Z,7.93
2017-07-17T19:53:04.871Z,7.90
2017-07-17T19:55:33.220Z,7.60
2017-07-17T19:58:00.990Z,8.40
2017-07-17T20:00:28.855Z,8.10
2017-07-17T20:02:56.423Z,8.27
2017-07-17T20:05:23.961Z,8.23
2017-07-17T20:07:51.850Z,9.07
2017-07-17T20:10:19.428Z,8.67
2017-07-17T20:12:46.967Z,8.00
2017-07-17T20:15:14.850Z,7.17
2017-07-17T20:17:42.402Z,8.87
2017-07-17T20:20:09.959Z,8.60
2017-07-17T20:22:37.811Z,8.23
2017-07-17T20:25:05.340Z,9.57
2017-07-17T20:27:32.906Z,8.50
2017-07-17T20:30:00.758Z,8.83
2017-07-17T20:32:29.545Z,8.83
2017-07-17T20:34:57.093Z,9.63
2017-07-17T20:37:25.001Z,10.07
2017-07-17T20:39:52.519Z,8.30
2017-07-17T20:42:20.850Z,10.20
2017-07-17T20:44:48.879Z,9.27
2017-07-17T20:47:17.233Z,9.13
2017-07-17T20:49:44.761Z,9.53
2017-07-17T20:52:12.686Z,9.63
2017-07-17T20:54:41.015Z,9.60
2017-07-17T20:57:08.566Z,10.03
2017-07-17T20:59:36.467Z,9.77
2017-07-17T21:02:04.004Z,9.90
2017-07-17T21:04:31.550Z,9.83
2017-07-17T21:06:59.425Z,11.77
2017-07-17T21:09:26.964Z,11.00
2017-07-17T21:11:54.507Z,11.47
2017-07-17T21:14:23.091Z,11.40
2017-07-17T21:16:51.384Z,11.10
2017-07-17T21:19:18.940Z,10.40
2017-07-17T21:21:47.081Z,10.97
2017-07-17T21:24:15.399Z,10.13
2017-07-17T21:26:42.934Z,11.50
2017-07-17T21:29:10.869Z,11.60
2017-07-17T21:31:38.407Z,10.60
2017-07-17T21:34:05.985Z,10.70
2017-07-17T21:36:34.014Z,10.27
2017-07-17T21:39:01.563Z,10.10
2017-07-17T21:41:29.174Z,10.87
2017-07-17T21:43:57.062Z,9.43
2017-07-17T21:46:24.589Z,10.30
2017-07-17T21:48:52.169Z,10.33
2017-07-17T21:51:20.089Z,10.50
2017-07-17T21:53:47.661Z,9.50
2017-07-17T21:56:15.184Z,10.03
2017-07-17T21:58:43.013Z,10.20
2017-07-17T22:01:10.552Z,10.33
2017-07-17T22:03:38.061Z,10.30
2017-07-17T22:06:05.902Z,11.60
2017-07-17T22:08:33.425Z,10.27
2017-07-17T22:11:00.961Z,10.40
2017-07-17T22:13:29.602Z,11.07
2017-07-17T22:15:57.124Z,9.97
2017-07-17T22:18:24.645Z,9.47
2017-07-17T22:20:52.523Z,10.20
2017-07-17T22:23:20.064Z,9.40
2017-07-17T22:25:47.575Z,10.13
2017-07-17T22:28:15.475Z,9.60
2017-07-17T22:30:43.015Z,10.10
2017-07-17T22:33:10.544Z,10.30
2017-07-17T22:35:38.462Z,10.33
2017-07-17T22:38:05.987Z,10.53
2017-07-17T22:40:34.296Z,10.10
2017-07-17T22:43:02.117Z,10.07
2017-07-17T22:45:30.402Z,9.80
2017-07-17T22:47:58.718Z,9.70
2017-07-17T22:50:26.534Z,11.30
2017-07-17T22:52:54.070Z,11.03
2017-07-17T22:55:21.609Z,11.60
2017-07-17T22:57:49.501Z,10.80
2017-07-17T23:00:17.029Z,11.10
2017-07-17T23:02:44.561Z,11.57
2017-07-17T23:05:13.304Z,11.77
2017-07-17T23:07:40.841Z,12.23
2017-07-17T23:10:08.377Z,10.27
2017-07-17T23:12:36.203Z,11.20
2017-07-17T23:15:03.752Z,11.30
2017-07-17T23:17:31.259Z,9.80
2017-07-17T23:19:59.063Z,10.87
2017-07-17T23:22:26.607Z,10.33
2017-07-17T23:24:54.151Z,9.90
2017-07-17T23:27:22.036Z,11.40
2017-07-17T23:29:49.566Z,10.50
2017-07-17T23:32:17.858Z,9.80
2017-07-17T23:34:45.685Z,10.10
2017-07-17T23:37:13.454Z,10.77
2017-07-17T23:39:40.992Z,9.70
2017-07-17T23:42:08.863Z,10.93
2017-07-17T23:44:36.419Z,9.80
2017-07-17T23:47:03.927Z,9.50
2017-07-17T23:49:31.768Z,10.30
2017-07-17T23:51:59.308Z,10.13
2017-07-17T23:54:26.838Z,10.43
2017-07-17T23:56:54.654Z,10.70
2017-07-17T23:59:22.173Z,9.43
